sensor_id;sensor_type;location;lat;lon;timestamp;pressure;altitude;pressure_sealevel;temperature;humidity
58761;BME280;44529;47.464;19.014;2023-03-13T00:02:48;100464.63;;;4.96;53.19
58761;BME280;44529;47.464;19.014;2023-03-13T00:05:58;100470.78;;;4.91;53.19
58761;BME280;44529;47.464;19.014;2023-03-13T00:09:01;100464.34;;;4.87;54.56
58761;BME280;44529;47.464;19.014;2023-03-13T00:12:04;100455.25;;;4.88;52.93
58761;BME280;44529;47.464;19.014;2023-03-13T00:15:07;100457.41;;;4.86;54.11
58761;BME280;44529;47.464;19.014;2023-03-13T00:18:10;100454.19;;;4.79;54.98
58761;BME280;44529;47.464;19.014;2023-03-13T00:21:12;100467.06;;;4.77;55.60
58761;BME280;44529;47.464;19.014;2023-03-13T00:24:15;100454.97;;;4.74;55.55
58761;BME280;44529;47.464;19.014;2023-03-13T00:27:17;100453.09;;;4.80;55.63
58761;BME280;44529;47.464;19.014;2023-03-13T00:30:20;100452.03;;;4.81;55.00
58761;BME280;44529;47.464;19.014;2023-03-13T00:33:22;100453.63;;;4.82;55.17
58761;BME280;44529;47.464;19.014;2023-03-13T00:36:27;100462.75;;;4.81;55.48
58761;BME280;44529;47.464;19.014;2023-03-13T00:39:29;100462.22;;;4.79;55.74
58761;BME280;44529;47.464;19.014;2023-03-13T00:42:35;100459.00;;;4.77;56.13
58761;BME280;44529;47.464;19.014;2023-03-13T00:45:37;100453.38;;;4.73;57.10
58761;BME280;44529;47.464;19.014;2023-03-13T00:48:40;100442.94;;;4.77;56.78
58761;BME280;44529;47.464;19.014;2023-03-13T00:51:42;100446.66;;;4.76;57.01
58761;BME280;44529;47.464;19.014;2023-03-13T00:54:44;100446.94;;;4.79;56.96
58761;BME280;44529;47.464;19.014;2023-03-13T00:57:47;100450.16;;;4.81;57.54
58761;BME280;44529;47.464;19.014;2023-03-13T01:00:49;100443.19;;;4.85;57.51
58761;BME280;44529;47.464;19.014;2023-03-13T01:03:57;100434.88;;;4.87;57.77
58761;BME280;44529;47.464;19.014;2023-03-13T01:07:00;100423.34;;;4.76;58.83
58761;BME280;44529;47.464;19.014;2023-03-13T01:10:03;100413.72;;;4.85;58.87
58761;BME280;44529;47.464;19.014;2023-03-13T01:13:05;100403.81;;;4.81;59.31
58761;BME280;44529;47.464;19.014;2023-03-13T01:16:11;100412.66;;;4.81;59.46
58761;BME280;44529;47.464;19.014;2023-03-13T01:19:15;100411.06;;;4.85;59.40
58761;BME280;44529;47.464;19.014;2023-03-13T01:22:19;100418.28;;;4.90;59.33
58761;BME280;44529;47.464;19.014;2023-03-13T01:25:21;100420.41;;;4.93;59.66
58761;BME280;44529;47.464;19.014;2023-03-13T01:28:24;100416.13;;;4.87;59.63
58761;BME280;44529;47.464;19.014;2023-03-13T01:31:31;100407.00;;;4.88;59.94
58761;BME280;44529;47.464;19.014;2023-03-13T01:34:33;100398.69;;;4.95;59.84
58761;BME280;44529;47.464;19.014;2023-03-13T01:37:36;100399.25;;;4.92;59.59
58761;BME280;44529;47.464;19.014;2023-03-13T01:40:47;100407.03;;;4.93;59.60
58761;BME280;44529;47.464;19.014;2023-03-13T01:43:49;100405.94;;;4.99;60.17
58761;BME280;44529;47.464;19.014;2023-03-13T01:46:52;100400.03;;;5.07;60.09
58761;BME280;44529;47.464;19.014;2023-03-13T01:49:57;100390.38;;;5.06;60.40
58761;BME280;44529;47.464;19.014;2023-03-13T01:53:01;100399.50;;;5.05;60.71
58761;BME280;44529;47.464;19.014;2023-03-13T01:56:06;100393.06;;;5.01;60.74
58761;BME280;44529;47.464;19.014;2023-03-13T01:59:18;100390.38;;;5.06;60.77
58761;BME280;44529;47.464;19.014;2023-03-13T02:02:22;100387.72;;;5.06;61.14
58761;BME280;44529;47.464;19.014;2023-03-13T02:05:27;100396.25;;;5.08;60.97
58761;BME280;44529;47.464;19.014;2023-03-13T02:08:42;100387.19;;;5.04;60.87
58761;BME280;44529;47.464;19.014;2023-03-13T02:14:55;100381.81;;;5.04;60.52
58761;BME280;44529;47.464;19.014;2023-03-13T02:17:59;100378.34;;;5.04;60.26
58761;BME280;44529;47.464;19.014;2023-03-13T02:21:09;100385.31;;;5.05;60.88
58761;BME280;44529;47.464;19.014;2023-03-13T02:24:21;100385.53;;;5.08;61.03
58761;BME280;44529;47.464;19.014;2023-03-13T02:27:25;100383.94;;;5.07;60.63
58761;BME280;44529;47.464;19.014;2023-03-13T02:30:27;100379.13;;;5.04;61.03
58761;BME280;44529;47.464;19.014;2023-03-13T02:33:35;100377.03;;;4.96;61.22
58761;BME280;44529;47.464;19.014;2023-03-13T02:36:38;100387.19;;;4.89;61.77
58761;BME280;44529;47.464;19.014;2023-03-13T02:39:44;100379.16;;;4.89;62.03
58761;BME280;44529;47.464;19.014;2023-03-13T02:42:49;100383.47;;;4.90;62.14
58761;BME280;44529;47.464;19.014;2023-03-13T02:46:13;100383.19;;;4.86;62.28
58761;BME280;44529;47.464;19.014;2023-03-13T02:49:25;100377.31;;;4.84;62.62
58761;BME280;44529;47.464;19.014;2023-03-13T02:52:31;100380.22;;;4.83;63.44
58761;BME280;44529;47.464;19.014;2023-03-13T02:55:39;100375.41;;;4.85;63.29
58761;BME280;44529;47.464;19.014;2023-03-13T02:58:42;100378.09;;;4.85;63.37
58761;BME280;44529;47.464;19.014;2023-03-13T03:01:53;100384.78;;;4.82;62.92
58761;BME280;44529;47.464;19.014;2023-03-13T03:04:56;100401.12;;;4.81;63.71
58761;BME280;44529;47.464;19.014;2023-03-13T03:07:58;100404.59;;;4.76;63.87
58761;BME280;44529;47.464;19.014;2023-03-13T03:11:01;100395.25;;;4.69;63.86
58761;BME280;44529;47.464;19.014;2023-03-13T03:14:04;100395.22;;;4.63;64.48
58761;BME280;44529;47.464;19.014;2023-03-13T03:17:08;100393.13;;;4.66;64.41
58761;BME280;44529;47.464;19.014;2023-03-13T03:20:11;100390.16;;;4.67;64.39
58761;BME280;44529;47.464;19.014;2023-03-13T03:23:15;100385.59;;;4.62;64.31
58761;BME280;44529;47.464;19.014;2023-03-13T03:26:17;100386.13;;;4.49;65.04
58761;BME280;44529;47.464;19.014;2023-03-13T03:29:20;100395.78;;;4.55;64.98
58761;BME280;44529;47.464;19.014;2023-03-13T03:32:23;100401.97;;;4.51;65.27
58761;BME280;44529;47.464;19.014;2023-03-13T03:35:25;100395.50;;;4.57;64.91
58761;BME280;44529;47.464;19.014;2023-03-13T03:38:28;100393.91;;;4.56;64.75
58761;BME280;44529;47.464;19.014;2023-03-13T03:41:31;100391.75;;;4.48;65.16
58761;BME280;44529;47.464;19.014;2023-03-13T03:44:33;100384.81;;;4.47;65.16
58761;BME280;44529;47.464;19.014;2023-03-13T03:47:37;100379.72;;;4.45;65.72
58761;BME280;44529;47.464;19.014;2023-03-13T03:50:40;100384.78;;;4.37;66.42
58761;BME280;44529;47.464;19.014;2023-03-13T03:53:43;100390.13;;;4.31;66.35
58761;BME280;44529;47.464;19.014;2023-03-13T03:56:45;100394.44;;;4.27;66.07
58761;BME280;44529;47.464;19.014;2023-03-13T03:59:48;100395.22;;;4.23;66.65
58761;BME280;44529;47.464;19.014;2023-03-13T04:02:50;100400.56;;;4.23;66.61
58761;BME280;44529;47.464;19.014;2023-03-13T04:05:53;100409.41;;;4.23;66.70
58761;BME280;44529;47.464;19.014;2023-03-13T04:08:57;100417.97;;;4.20;66.75
58761;BME280;44529;47.464;19.014;2023-03-13T04:12:00;100415.53;;;4.08;67.58
58761;BME280;44529;47.464;19.014;2023-03-13T04:15:04;100412.59;;;4.10;67.18
58761;BME280;44529;47.464;19.014;2023-03-13T04:18:07;100418.78;;;4.21;66.77
58761;BME280;44529;47.464;19.014;2023-03-13T04:21:09;100416.09;;;4.21;67.15
58761;BME280;44529;47.464;19.014;2023-03-13T04:24:13;100418.25;;;4.19;66.83
58761;BME280;44529;47.464;19.014;2023-03-13T04:27:16;100417.16;;;4.20;66.93
58761;BME280;44529;47.464;19.014;2023-03-13T04:30:19;100423.31;;;4.20;66.50
58761;BME280;44529;47.464;19.014;2023-03-13T04:33:23;100429.47;;;4.21;66.48
58761;BME280;44529;47.464;19.014;2023-03-13T04:36:26;100435.88;;;4.25;66.57
58761;BME280;44529;47.464;19.014;2023-03-13T04:39:30;100433.78;;;4.27;65.96
58761;BME280;44529;47.464;19.014;2023-03-13T04:42:35;100432.97;;;4.37;65.62
58761;BME280;44529;47.464;19.014;2023-03-13T04:45:38;100422.53;;;4.35;65.95
58761;BME280;44529;47.464;19.014;2023-03-13T04:48:41;100428.72;;;4.41;65.62
58761;BME280;44529;47.464;19.014;2023-03-13T04:51:44;100424.97;;;4.42;66.06
58761;BME280;44529;47.464;19.014;2023-03-13T04:54:47;100423.37;;;4.46;65.40
58761;BME280;44529;47.464;19.014;2023-03-13T04:57:52;100424.69;;;4.43;65.44
58761;BME280;44529;47.464;19.014;2023-03-13T05:00:55;100440.47;;;4.50;65.53
58761;BME280;44529;47.464;19.014;2023-03-13T05:03:58;100450.16;;;4.51;64.67
58761;BME280;44529;47.464;19.014;2023-03-13T05:07:01;100445.06;;;4.54;64.22
58761;BME280;44529;47.464;19.014;2023-03-13T05:10:04;100442.66;;;4.53;64.55
58761;BME280;44529;47.464;19.014;2023-03-13T05:13:08;100446.41;;;4.62;63.79
58761;BME280;44529;47.464;19.014;2023-03-13T05:16:10;100449.34;;;4.60;64.14
58761;BME280;44529;47.464;19.014;2023-03-13T05:19:13;100449.59;;;4.54;64.27
58761;BME280;44529;47.464;19.014;2023-03-13T05:22:15;100456.31;;;4.61;64.36
58761;BME280;44529;47.464;19.014;2023-03-13T05:25:19;100458.97;;;4.61;63.53
58761;BME280;44529;47.464;19.014;2023-03-13T05:28:22;100469.72;;;4.67;64.29
58761;BME280;44529;47.464;19.014;2023-03-13T05:31:25;100453.09;;;4.70;64.00
58761;BME280;44529;47.464;19.014;2023-03-13T05:34:27;100469.97;;;4.75;63.56
58761;BME280;44529;47.464;19.014;2023-03-13T05:37:32;100462.72;;;4.76;63.90
58761;BME280;44529;47.464;19.014;2023-03-13T05:40:35;100471.84;;;4.75;63.96
58761;BME280;44529;47.464;19.014;2023-03-13T05:43:38;100467.56;;;4.74;63.59
58761;BME280;44529;47.464;19.014;2023-03-13T05:46:40;100466.47;;;4.70;63.99
58761;BME280;44529;47.464;19.014;2023-03-13T05:49:44;100471.34;;;4.78;63.55
58761;BME280;44529;47.464;19.014;2023-03-13T05:52:47;100472.13;;;4.78;64.29
58761;BME280;44529;47.464;19.014;2023-03-13T05:55:49;100464.88;;;4.69;64.63
58761;BME280;44529;47.464;19.014;2023-03-13T05:58:52;100464.34;;;4.72;64.44
58761;BME280;44529;47.464;19.014;2023-03-13T06:01:59;100465.41;;;4.76;64.90
58761;BME280;44529;47.464;19.014;2023-03-13T06:05:03;100471.84;;;4.80;64.82
58761;BME280;44529;47.464;19.014;2023-03-13T06:08:05;100471.06;;;4.84;64.58
58761;BME280;44529;47.464;19.014;2023-03-13T06:11:08;100470.78;;;4.86;64.36
58761;BME280;44529;47.464;19.014;2023-03-13T06:14:11;100472.94;;;4.94;64.89
58761;BME280;44529;47.464;19.014;2023-03-13T06:17:14;100469.44;;;4.94;65.09
58761;BME280;44529;47.464;19.014;2023-03-13T06:20:17;100462.75;;;4.91;64.85
58761;BME280;44529;47.464;19.014;2023-03-13T06:23:19;100461.16;;;4.85;64.94
58761;BME280;44529;47.464;19.014;2023-03-13T06:26:22;100467.31;;;4.85;64.45
58761;BME280;44529;47.464;19.014;2023-03-13T06:29:26;100464.88;;;4.89;64.39
58761;BME280;44529;47.464;19.014;2023-03-13T06:32:29;100467.31;;;4.85;65.00
58761;BME280;44529;47.464;19.014;2023-03-13T06:35:31;100462.19;;;4.89;64.27
58761;BME280;44529;47.464;19.014;2023-03-13T06:38:44;100463.28;;;4.93;65.03
58761;BME280;44529;47.464;19.014;2023-03-13T06:41:46;100461.94;;;4.96;64.88
58761;BME280;44529;47.464;19.014;2023-03-13T06:44:49;100462.75;;;5.01;64.34
58761;BME280;44529;47.464;19.014;2023-03-13T06:47:51;100468.91;;;5.02;64.89
58761;BME280;44529;47.464;19.014;2023-03-13T06:50:53;100469.19;;;5.10;64.73
58761;BME280;44529;47.464;19.014;2023-03-13T06:53:57;100469.47;;;5.04;63.92
58761;BME280;44529;47.464;19.014;2023-03-13T06:57:00;100467.31;;;5.11;64.00
58761;BME280;44529;47.464;19.014;2023-03-13T07:00:03;100463.00;;;5.20;63.67
58761;BME280;44529;47.464;19.014;2023-03-13T07:03:07;100469.44;;;5.19;63.90
58761;BME280;44529;47.464;19.014;2023-03-13T07:06:10;100460.59;;;5.19;63.24
58761;BME280;44529;47.464;19.014;2023-03-13T07:09:13;100464.59;;;5.26;62.71
58761;BME280;44529;47.464;19.014;2023-03-13T07:12:16;100463.78;;;5.31;62.45
58761;BME280;44529;47.464;19.014;2023-03-13T07:15:18;100470.75;;;5.32;63.26
58761;BME280;44529;47.464;19.014;2023-03-13T07:18:21;100466.72;;;5.34;62.02
58761;BME280;44529;47.464;19.014;2023-03-13T07:21:24;100460.03;;;5.37;62.18
58761;BME280;44529;47.464;19.014;2023-03-13T07:24:26;100466.47;;;5.26;62.42
58761;BME280;44529;47.464;19.014;2023-03-13T07:27:28;100456.53;;;5.36;61.29
58761;BME280;44529;47.464;19.014;2023-03-13T07:30:31;100460.56;;;5.39;60.93
58761;BME280;44529;47.464;19.014;2023-03-13T07:33:33;100458.13;;;5.48;60.64
58761;BME280;44529;47.464;19.014;2023-03-13T07:36:36;100456.78;;;5.50;60.68
58761;BME280;44529;47.464;19.014;2023-03-13T07:39:38;100454.63;;;5.52;61.14
58761;BME280;44529;47.464;19.014;2023-03-13T07:42:41;100445.19;;;5.70;59.98
58761;BME280;44529;47.464;19.014;2023-03-13T07:46:00;100447.59;;;5.71;60.37
58761;BME280;44529;47.464;19.014;2023-03-13T07:49:03;100451.06;;;5.77;60.34
58761;BME280;44529;47.464;19.014;2023-03-13T07:52:05;100437.63;;;5.82;59.40
58761;BME280;44529;47.464;19.014;2023-03-13T07:55:08;100434.91;;;5.92;59.30
58761;BME280;44529;47.464;19.014;2023-03-13T07:58:11;100434.88;;;6.03;59.61
58761;BME280;44529;47.464;19.014;2023-03-13T08:01:19;100427.28;;;6.15;58.15
58761;BME280;44529;47.464;19.014;2023-03-13T08:04:22;100423.53;;;6.16;58.54
58761;BME280;44529;47.464;19.014;2023-03-13T08:07:25;100424.28;;;6.27;57.56
58761;BME280;44529;47.464;19.014;2023-03-13T08:10:27;100411.13;;;6.25;58.01
58761;BME280;44529;47.464;19.014;2023-03-13T08:13:31;100410.81;;;6.32;58.44
58761;BME280;44529;47.464;19.014;2023-03-13T08:16:33;100406.41;;;6.46;57.16
58761;BME280;44529;47.464;19.014;2023-03-13T08:19:36;100403.59;;;6.61;56.22
58761;BME280;44529;47.464;19.014;2023-03-13T08:22:39;100397.81;;;7.07;56.03
58761;BME280;44529;47.464;19.014;2023-03-13T08:25:41;100390.28;;;7.81;52.84
58761;BME280;44529;47.464;19.014;2023-03-13T08:28:46;100387.84;;;8.74;50.16
58761;BME280;44529;47.464;19.014;2023-03-13T08:31:49;100384.03;;;9.48;48.65
58761;BME280;44529;47.464;19.014;2023-03-13T08:34:53;100385.06;;;10.02;47.16
58761;BME280;44529;47.464;19.014;2023-03-13T08:37:55;100383.97;;;10.62;46.50
58761;BME280;44529;47.464;19.014;2023-03-13T08:40:58;100382.56;;;10.65;44.23
58761;BME280;44529;47.464;19.014;2023-03-13T08:44:00;100374.75;;;10.94;44.45
58761;BME280;44529;47.464;19.014;2023-03-13T08:47:05;100374.75;;;11.25;43.12
58761;BME280;44529;47.464;19.014;2023-03-13T08:50:07;100377.91;;;11.19;43.43
58761;BME280;44529;47.464;19.014;2023-03-13T08:53:10;100381.22;;;11.47;42.22
58761;BME280;44529;47.464;19.014;2023-03-13T08:56:14;100359.19;;;12.14;41.93
58761;BME280;44529;47.464;19.014;2023-03-13T08:59:17;100354.09;;;12.12;40.33
58761;BME280;44529;47.464;19.014;2023-03-13T09:02:19;100360.44;;;12.42;41.33
58761;BME280;44529;47.464;19.014;2023-03-13T09:05:22;100348.47;;;12.61;39.11
58761;BME280;44529;47.464;19.014;2023-03-13T09:08:24;100350.84;;;13.18;38.71
58761;BME280;44529;47.464;19.014;2023-03-13T09:11:27;100351.22;;;12.99;37.80
58761;BME280;44529;47.464;19.014;2023-03-13T09:14:30;100354.91;;;13.03;38.21
58761;BME280;44529;47.464;19.014;2023-03-13T09:17:32;100349.59;;;13.07;38.36
58761;BME280;44529;47.464;19.014;2023-03-13T09:20:34;100345.72;;;13.34;37.61
58761;BME280;44529;47.464;19.014;2023-03-13T09:23:37;100342.75;;;13.47;37.19
58761;BME280;44529;47.464;19.014;2023-03-13T09:26:39;100332.59;;;13.36;36.81
58761;BME280;44529;47.464;19.014;2023-03-13T09:29:53;100344.44;;;13.61;36.17
58761;BME280;44529;47.464;19.014;2023-03-13T09:32:55;100336.13;;;13.57;36.22
58761;BME280;44529;47.464;19.014;2023-03-13T09:35:58;100326.94;;;13.70;35.74
58761;BME280;44529;47.464;19.014;2023-03-13T09:39:00;100318.84;;;13.62;35.47
58761;BME280;44529;47.464;19.014;2023-03-13T09:42:17;100319.09;;;13.48;36.30
58761;BME280;44529;47.464;19.014;2023-03-13T09:45:32;100319.31;;;13.64;36.70
58761;BME280;44529;47.464;19.014;2023-03-13T09:48:42;100316.03;;;13.79;35.91
58761;BME280;44529;47.464;19.014;2023-03-13T09:51:51;100317.00;;;13.95;35.64
58761;BME280;44529;47.464;19.014;2023-03-13T09:54:58;100315.53;;;14.19;35.43
58761;BME280;44529;47.464;19.014;2023-03-13T09:58:07;100313.16;;;13.96;36.23
58761;BME280;44529;47.464;19.014;2023-03-13T10:01:16;100307.59;;;13.93;36.24
58761;BME280;44529;47.464;19.014;2023-03-13T10:04:34;100306.47;;;13.73;36.87
58761;BME280;44529;47.464;19.014;2023-03-13T10:07:43;100286.66;;;13.72;35.95
58761;BME280;44529;47.464;19.014;2023-03-13T10:10:59;100274.91;;;13.60;36.30
58761;BME280;44529;47.464;19.014;2023-03-13T10:14:10;100274.84;;;13.47;36.00
58761;BME280;44529;47.464;19.014;2023-03-13T10:20:35;100275.50;;;13.44;37.09
58761;BME280;44529;47.464;19.014;2023-03-13T10:26:47;100274.13;;;13.59;37.61
58761;BME280;44529;47.464;19.014;2023-03-13T10:29:50;100271.69;;;13.66;37.52
58761;BME280;44529;47.464;19.014;2023-03-13T10:32:55;100266.09;;;13.42;36.72
58761;BME280;44529;47.464;19.014;2023-03-13T10:36:11;100261.19;;;13.35;37.21
58761;BME280;44529;47.464;19.014;2023-03-13T10:39:16;100258.94;;;13.58;37.15
58761;BME280;44529;47.464;19.014;2023-03-13T10:42:30;100259.34;;;13.69;37.80
58761;BME280;44529;47.464;19.014;2023-03-13T10:45:35;100259.88;;;13.62;37.11
58761;BME280;44529;47.464;19.014;2023-03-13T10:48:38;100258.72;;;13.84;37.66
58761;BME280;44529;47.464;19.014;2023-03-13T10:51:46;100252.38;;;13.80;37.80
58761;BME280;44529;47.464;19.014;2023-03-13T10:54:50;100246.25;;;13.83;36.70
58761;BME280;44529;47.464;19.014;2023-03-13T10:58:04;100238.84;;;13.92;36.10
58761;BME280;44529;47.464;19.014;2023-03-13T11:07:35;100234.41;;;13.88;36.37
58761;BME280;44529;47.464;19.014;2023-03-13T11:10:53;100225.97;;;14.01;37.33
58761;BME280;44529;47.464;19.014;2023-03-13T11:14:08;100219.31;;;14.11;37.42
58761;BME280;44529;47.464;19.014;2023-03-13T11:17:55;100215.47;;;14.12;36.96
58761;BME280;44529;47.464;19.014;2023-03-13T11:21:00;100209.13;;;14.20;36.56
58761;BME280;44529;47.464;19.014;2023-03-13T11:30:41;100202.56;;;14.21;36.86
58761;BME280;44529;47.464;19.014;2023-03-13T11:33:57;100193.47;;;14.05;37.09
58761;BME280;44529;47.464;19.014;2023-03-13T11:37:11;100192.25;;;14.27;37.04
58761;BME280;44529;47.464;19.014;2023-03-13T11:40:31;100170.84;;;14.25;37.16
58761;BME280;44529;47.464;19.014;2023-03-13T11:43:54;100180.47;;;14.35;36.82
58761;BME280;44529;47.464;19.014;2023-03-13T11:47:25;100164.88;;;14.44;37.47
58761;BME280;44529;47.464;19.014;2023-03-13T11:50:38;100160.13;;;14.53;37.08
58761;BME280;44529;47.464;19.014;2023-03-13T11:57:26;100164.00;;;14.77;36.39
58761;BME280;44529;47.464;19.014;2023-03-13T12:01:16;100144.03;;;14.60;36.84
58761;BME280;44529;47.464;19.014;2023-03-13T12:04:25;100133.47;;;14.59;37.29
58761;BME280;44529;47.464;19.014;2023-03-13T12:07:44;100125.41;;;14.75;37.01
58761;BME280;44529;47.464;19.014;2023-03-13T12:11:05;100120.66;;;14.84;36.36
58761;BME280;44529;47.464;19.014;2023-03-13T12:21:01;100101.06;;;15.47;35.92
58761;BME280;44529;47.464;19.014;2023-03-13T12:31:00;100083.75;;;15.55;36.21
58761;BME280;44529;47.464;19.014;2023-03-13T12:34:23;100090.06;;;15.87;36.17
58761;BME280;44529;47.464;19.014;2023-03-13T12:38:03;100081.97;;;15.90;35.33
58761;BME280;44529;47.464;19.014;2023-03-13T12:41:35;100073.28;;;15.85;35.28
58761;BME280;44529;47.464;19.014;2023-03-13T12:44:43;100069.22;;;15.94;35.20
58761;BME280;44529;47.464;19.014;2023-03-13T12:58:42;100031.47;;;16.12;34.86
58761;BME280;44529;47.464;19.014;2023-03-13T13:01:48;100017.56;;;16.17;34.84
58761;BME280;44529;47.464;19.014;2023-03-13T13:04:53;100020.22;;;16.14;35.72
58761;BME280;44529;47.464;19.014;2023-03-13T13:07:56;100000.25;;;15.94;35.56
58761;BME280;44529;47.464;19.014;2023-03-13T13:17:58;100007.44;;;16.18;35.64
58761;BME280;44529;47.464;19.014;2023-03-13T13:24:46;100011.75;;;16.03;35.43
58761;BME280;44529;47.464;19.014;2023-03-13T13:27:50;100015.72;;;15.90;36.34
58761;BME280;44529;47.464;19.014;2023-03-13T13:30:54;100010.72;;;16.08;35.80
58761;BME280;44529;47.464;19.014;2023-03-13T13:33:57;100007.34;;;16.30;35.70
58761;BME280;44529;47.464;19.014;2023-03-13T13:37:25;99998.44;;;16.33;35.95
58761;BME280;44529;47.464;19.014;2023-03-13T13:40:30;99993.87;;;16.21;36.23
58761;BME280;44529;47.464;19.014;2023-03-13T13:43:35;99992.56;;;16.31;36.47
58761;BME280;44529;47.464;19.014;2023-03-13T13:46:43;99983.72;;;16.38;36.25
58761;BME280;44529;47.464;19.014;2023-03-13T13:49:52;99977.53;;;16.41;36.31
58761;BME280;44529;47.464;19.014;2023-03-13T13:53:41;99965.84;;;16.40;36.26
58761;BME280;44529;47.464;19.014;2023-03-13T13:56:46;99971.63;;;16.19;36.12
58761;BME280;44529;47.464;19.014;2023-03-13T13:59:53;99956.59;;;16.10;36.20
58761;BME280;44529;47.464;19.014;2023-03-13T14:02:59;99949.53;;;16.24;36.50
58761;BME280;44529;47.464;19.014;2023-03-13T14:06:19;99944.25;;;16.16;36.48
58761;BME280;44529;47.464;19.014;2023-03-13T14:12:36;99942.31;;;16.16;37.39
58761;BME280;44529;47.464;19.014;2023-03-13T14:15:52;99947.72;;;16.13;37.32
58761;BME280;44529;47.464;19.014;2023-03-13T14:18:56;99954.50;;;16.03;36.92
58761;BME280;44529;47.464;19.014;2023-03-13T14:22:06;99946.75;;;16.05;36.99
58761;BME280;44529;47.464;19.014;2023-03-13T14:25:09;99944.78;;;16.41;36.39
58761;BME280;44529;47.464;19.014;2023-03-13T14:28:25;99949.41;;;16.37;36.48
58761;BME280;44529;47.464;19.014;2023-03-13T14:31:38;99939.69;;;16.20;36.96
58761;BME280;44529;47.464;19.014;2023-03-13T14:34:40;99945.41;;;16.15;37.45
58761;BME280;44529;47.464;19.014;2023-03-13T14:37:45;99947.34;;;16.14;37.66
58761;BME280;44529;47.464;19.014;2023-03-13T14:40:49;99939.19;;;16.34;37.75
58761;BME280;44529;47.464;19.014;2023-03-13T14:43:53;99933.09;;;16.40;36.97
58761;BME280;44529;47.464;19.014;2023-03-13T14:46:58;99935.66;;;16.33;37.36
58761;BME280;44529;47.464;19.014;2023-03-13T14:50:11;99928.94;;;16.46;37.26
58761;BME280;44529;47.464;19.014;2023-03-13T14:53:20;99939.97;;;16.34;37.96
58761;BME280;44529;47.464;19.014;2023-03-13T14:56:38;99933.53;;;16.42;37.89
58761;BME280;44529;47.464;19.014;2023-03-13T14:59:44;99929.34;;;16.48;37.79
58761;BME280;44529;47.464;19.014;2023-03-13T15:02:46;99915.22;;;16.62;37.97
58761;BME280;44529;47.464;19.014;2023-03-13T15:05:50;99924.50;;;16.58;38.22
58761;BME280;44529;47.464;19.014;2023-03-13T15:09:29;99916.44;;;16.45;38.64
58761;BME280;44529;47.464;19.014;2023-03-13T15:12:41;99909.97;;;16.34;38.62
58761;BME280;44529;47.464;19.014;2023-03-13T15:15:48;99909.00;;;16.07;39.18
58761;BME280;44529;47.464;19.014;2023-03-13T15:18:51;99903.63;;;16.11;39.35
58761;BME280;44529;47.464;19.014;2023-03-13T15:21:54;99899.59;;;16.05;39.08
58761;BME280;44529;47.464;19.014;2023-03-13T15:24:56;99897.09;;;15.80;39.62
58761;BME280;44529;47.464;19.014;2023-03-13T15:28:27;99894.22;;;15.73;39.72
58761;BME280;44529;47.464;19.014;2023-03-13T15:31:29;99887.91;;;15.53;40.51
58761;BME280;44529;47.464;19.014;2023-03-13T15:34:32;99883.31;;;15.41;40.79
58761;BME280;44529;47.464;19.014;2023-03-13T15:37:35;99885.34;;;15.29;41.24
58761;BME280;44529;47.464;19.014;2023-03-13T15:40:38;99882.34;;;15.18;41.24
58761;BME280;44529;47.464;19.014;2023-03-13T15:43:40;99869.78;;;14.98;41.58
58761;BME280;44529;47.464;19.014;2023-03-13T15:46:42;99871.59;;;14.94;41.97
58761;BME280;44529;47.464;19.014;2023-03-13T15:49:45;99873.53;;;14.77;42.03
58761;BME280;44529;47.464;19.014;2023-03-13T15:52:48;99871.41;;;14.71;42.24
58761;BME280;44529;47.464;19.014;2023-03-13T15:55:51;99868.41;;;14.60;42.31
58761;BME280;44529;47.464;19.014;2023-03-13T15:58:55;99852.12;;;14.48;42.44
58761;BME280;44529;47.464;19.014;2023-03-13T16:01:57;99859.50;;;14.35;42.62
58761;BME280;44529;47.464;19.014;2023-03-13T16:04:59;99861.69;;;14.29;42.91
58761;BME280;44529;47.464;19.014;2023-03-13T16:08:01;99862.28;;;14.23;43.06
58761;BME280;44529;47.464;19.014;2023-03-13T16:11:04;99866.03;;;14.18;43.61
58761;BME280;44529;47.464;19.014;2023-03-13T16:14:06;99859.50;;;14.07;43.84
58761;BME280;44529;47.464;19.014;2023-03-13T16:17:15;99850.91;;;14.05;44.13
58761;BME280;44529;47.464;19.014;2023-03-13T16:20:19;99860.91;;;13.89;44.90
58761;BME280;44529;47.464;19.014;2023-03-13T16:23:22;99854.91;;;13.83;45.01
58761;BME280;44529;47.464;19.014;2023-03-13T16:26:30;99859.53;;;13.82;45.19
58761;BME280;44529;47.464;19.014;2023-03-13T16:29:32;99850.94;;;13.80;45.30
58761;BME280;44529;47.464;19.014;2023-03-13T16:32:35;99843.59;;;13.69;45.54
58761;BME280;44529;47.464;19.014;2023-03-13T16:35:38;99843.94;;;13.67;45.83
58761;BME280;44529;47.464;19.014;2023-03-13T16:38:40;99839.75;;;13.58;46.31
58761;BME280;44529;47.464;19.014;2023-03-13T16:41:43;99853.91;;;13.51;47.16
58761;BME280;44529;47.464;19.014;2023-03-13T16:44:45;99857.53;;;13.43;47.79
58761;BME280;44529;47.464;19.014;2023-03-13T16:47:48;99861.97;;;13.35;48.09
58761;BME280;44529;47.464;19.014;2023-03-13T16:50:50;99856.31;;;13.28;48.73
58761;BME280;44529;47.464;19.014;2023-03-13T16:53:54;99848.81;;;13.25;48.91
58761;BME280;44529;47.464;19.014;2023-03-13T16:56:57;99853.03;;;13.22;49.14
58761;BME280;44529;47.464;19.014;2023-03-13T17:00:00;99846.41;;;13.11;49.53
58761;BME280;44529;47.464;19.014;2023-03-13T17:03:03;99852.53;;;13.08;49.62
58761;BME280;44529;47.464;19.014;2023-03-13T17:06:05;99858.63;;;13.05;49.70
58761;BME280;44529;47.464;19.014;2023-03-13T17:09:13;99858.28;;;13.07;49.95
58761;BME280;44529;47.464;19.014;2023-03-13T17:12:16;99863.16;;;13.01;49.78
58761;BME280;44529;47.464;19.014;2023-03-13T17:15:20;99862.91;;;13.06;49.43